Time;durP1;ratioP1;P1;durP2;ratioP2;P2;SDS_P1;SDS_P2;PMS_P1;PMS_P2;Temp;Humidity;BMP_temperature;BMP_pressure;BME280_temperature;BME280_humidity;BME280_pressure;Samples;Min_cycle;Max_cycle;Signal;HPM_P1;HPM_P2
2023/11/09 00:01:10;;;;;;;11.98;6.93;;;;;;;1.08;73.52;92694.34;2067704;69;20195;-79
2023/11/09 00:03:41;;;;;;;11.55;6.70;;;;;;;0.81;73.79;92690.38;2071139;69;20140;-80
2023/11/09 00:06:07;;;;;;;12.70;6.65;;;;;;;0.88;74.15;92681.38;2071305;69;20140;-79
2023/11/09 00:08:43;;;;;;;16.08;8.85;;;;;;;0.75;75.07;92696.09;2068174;69;20148;-79
2023/11/09 00:11:10;;;;;;;14.05;8.30;;;;;;;0.92;74.67;92688.03;2070811;69;20211;-80
2023/11/09 00:13:39;;;;;;;14.13;8.27;;;;;;;0.96;73.74;92680.09;2071055;69;20184;-78
2023/11/09 00:16:06;;;;;;;11.73;6.30;;;;;;;1.11;73.98;92670.34;2067669;69;20285;-80
2023/11/09 00:18:36;;;;;;;12.48;6.85;;;;;;;0.97;74.82;92673.25;2071043;69;20269;-79
2023/11/09 00:21:02;;;;;;;14.48;6.78;;;;;;;1.02;73.59;92666.06;2070600;69;20673;-79
2023/11/09 00:23:29;;;;;;;12.23;5.43;;;;;;;1.01;73.57;92659.78;2071251;69;20171;-79
2023/11/09 00:25:57;;;;;;;9.73;4.80;;;;;;;0.96;74.02;92657.16;2067855;69;20152;-78
2023/11/09 00:28:22;;;;;;;11.20;4.93;;;;;;;0.84;73.11;92644.94;2071439;69;20140;-80
2023/11/09 00:30:48;;;;;;;7.57;3.70;;;;;;;1.01;73.92;92668.09;2072570;69;20163;-79
2023/11/09 00:33:14;;;;;;;11.52;5.10;;;;;;;0.79;74.12;92657.69;2070081;69;20594;-80
2023/11/09 00:35:46;;;;;;;10.25;5.55;;;;;;;0.82;74.13;92673.19;2067923;69;20169;-78
2023/11/09 00:38:14;;;;;;;8.43;4.57;;;;;;;0.80;73.85;92658.41;2071254;69;20148;-79
2023/11/09 00:40:41;;;;;;;8.20;4.22;;;;;;;0.62;73.75;92649.84;2071601;69;20171;-79
2023/11/09 00:43:06;;;;;;;6.95;3.30;;;;;;;0.68;73.87;92644.13;2065406;69;20151;-78
2023/11/09 00:45:34;;;;;;;6.20;3.58;;;;;;;0.81;73.81;92670.97;2071832;69;20144;-79
2023/11/09 00:48:01;;;;;;;6.38;3.60;;;;;;;0.81;73.80;92665.44;2071159;69;20136;-78
2023/11/09 00:50:26;;;;;;;4.68;3.30;;;;;;;0.48;75.16;92648.50;2071508;69;20257;-78
2023/11/09 00:52:52;;;;;;;7.05;2.60;;;;;;;0.66;74.48;92653.00;2071665;69;20239;-79
2023/11/09 00:55:19;;;;;;;8.68;3.60;;;;;;;0.59;74.90;92656.47;2068264;69;20276;-80
2023/11/09 00:57:48;;;;;;;6.93;3.80;;;;;;;0.62;74.46;92649.84;2068613;69;20148;-79
2023/11/09 01:00:16;;;;;;;10.20;3.78;;;;;;;0.75;74.68;92657.28;2071825;69;20175;-79
2023/11/09 01:02:44;;;;;;;6.53;3.67;;;;;;;0.78;74.58;92656.19;2071603;69;20184;-80
2023/11/09 01:05:09;;;;;;;4.65;2.80;;;;;;;0.72;74.43;92659.13;2071608;69;20163;-79
2023/11/09 01:07:36;;;;;;;4.30;2.80;;;;;;;0.75;74.62;92643.44;2071647;69;20171;-78
2023/11/09 01:10:04;;;;;;;4.03;2.47;;;;;;;0.84;73.90;92653.25;2068191;69;20630;-79
2023/11/09 01:12:29;;;;;;;4.47;2.55;;;;;;;0.64;75.47;92649.28;2068293;69;20623;-79
2023/11/09 01:14:55;;;;;;;5.65;2.70;;;;;;;0.60;75.32;92646.88;2068221;69;20153;-79
2023/11/09 01:17:22;;;;;;;5.07;2.60;;;;;;;0.73;74.21;92648.75;2068027;69;20182;-77
2023/11/09 01:19:49;;;;;;;8.10;2.38;;;;;;;0.68;75.40;92644.13;2071522;69;20202;-78
2023/11/09 01:22:16;;;;;;;3.80;2.17;;;;;;;0.80;74.55;92642.53;2068299;69;20168;-78
2023/11/09 01:24:42;;;;;;;4.20;2.20;;;;;;;0.77;74.18;92635.31;2068100;69;20160;-80
2023/11/09 01:27:08;;;;;;;5.10;2.67;;;;;;;0.64;74.72;92635.44;2071672;69;20622;-80
2023/11/09 01:29:36;;;;;;;3.85;1.95;;;;;;;0.80;74.05;92616.84;2065435;69;20923;-79
2023/11/09 01:32:05;;;;;;;3.88;1.90;;;;;;;0.79;74.17;92612.59;2068190;69;20599;-80
2023/11/09 01:34:33;;;;;;;4.47;2.00;;;;;;;0.94;73.09;92629.25;2067775;69;20191;-79
2023/11/09 01:36:59;;;;;;;6.43;1.85;;;;;;;0.95;73.30;92630.75;2067952;69;20592;-79
2023/11/09 01:39:24;;;;;;;1.65;1.30;;;;;;;0.93;73.51;92630.56;2064353;69;20140;-80
2023/11/09 01:41:50;;;;;;;2.85;1.60;;;;;;;1.04;73.38;92629.47;2071564;69;20148;-79
2023/11/09 01:44:16;;;;;;;4.28;2.03;;;;;;;1.02;72.63;92635.56;2067957;69;20200;-79
2023/11/09 01:46:44;;;;;;;4.03;1.98;;;;;;;0.83;72.65;92632.38;2070989;69;20228;-80
2023/11/09 01:49:13;;;;;;;4.32;1.65;;;;;;;0.92;73.25;92626.31;2071295;69;20227;-80
2023/11/09 01:51:43;;;;;;;3.53;1.70;;;;;;;0.99;72.87;92623.53;2071475;69;20148;-79
2023/11/09 01:54:10;;;;;;;4.10;1.58;;;;;;;0.96;72.59;92640.53;2071535;69;20243;-80
2023/11/09 01:56:36;;;;;;;2.22;1.60;;;;;;;1.04;72.50;92632.97;2071443;69;20144;-80
2023/11/09 01:59:05;;;;;;;2.30;1.50;;;;;;;1.07;72.34;92620.78;2068030;69;20164;-80
2023/11/09 02:01:33;;;;;;;3.50;1.40;;;;;;;1.12;72.25;92622.66;2068074;69;20271;-79
2023/11/09 02:04:04;;;;;;;2.30;1.00;;;;;;;1.11;73.17;92609.34;2065362;69;20132;-78
2023/11/09 02:06:31;;;;;;;3.35;1.55;;;;;;;1.09;72.30;92609.88;2071265;69;20166;-79
2023/11/09 02:08:58;;;;;;;3.22;1.73;;;;;;;0.87;72.16;92594.69;2071513;69;20136;-79
2023/11/09 02:11:25;;;;;;;2.97;1.58;;;;;;;1.14;72.48;92611.00;2065493;69;20236;-78
2023/11/09 02:13:50;;;;;;;2.70;1.40;;;;;;;1.27;71.73;92613.63;2065356;69;20503;-78
2023/11/09 02:16:16;;;;;;;2.65;1.50;;;;;;;1.08;71.67;92586.22;2067876;69;20663;-79
2023/11/09 02:18:42;;;;;;;2.65;1.77;;;;;;;1.04;73.09;92610.81;2071321;69;20255;-78
2023/11/09 02:21:11;;;;;;;3.65;2.10;;;;;;;1.10;72.79;92605.84;2065155;69;20147;-79
2023/11/09 02:23:39;;;;;;;4.68;2.03;;;;;;;0.93;72.65;92609.13;2068030;69;20160;-78
2023/11/09 02:26:06;;;;;;;3.88;2.15;;;;;;;0.97;72.80;92600.44;2071343;69;20231;-78
2023/11/09 02:28:32;;;;;;;3.28;2.08;;;;;;;1.09;72.60;92598.78;2071465;69;20199;-79
2023/11/09 02:30:58;;;;;;;2.95;1.85;;;;;;;1.02;72.50;92591.94;2071366;69;20631;-79
2023/11/09 02:33:23;;;;;;;3.75;1.95;;;;;;;1.08;72.90;92602.13;2071192;69;20535;-78
2023/11/09 02:35:49;;;;;;;4.55;2.25;;;;;;;0.80;73.40;92603.72;2067939;69;20556;-79
2023/11/09 02:38:15;;;;;;;4.05;1.95;;;;;;;0.87;73.92;92588.41;2068056;69;20148;-77
2023/11/09 02:40:41;;;;;;;5.60;2.17;;;;;;;0.74;73.66;92583.75;2071307;69;20187;-78
2023/11/09 02:43:07;;;;;;;5.63;2.05;;;;;;;0.81;73.83;92596.88;2068024;69;20191;-77
2023/11/09 02:45:33;;;;;;;3.30;2.10;;;;;;;0.90;74.13;92595.63;2067893;69;20160;-78
2023/11/09 02:47:59;;;;;;;8.50;2.22;;;;;;;0.96;74.06;92596.94;2067963;69;20198;-78
2023/11/09 02:50:25;;;;;;;3.28;2.00;;;;;;;0.99;73.50;92603.41;2071331;69;20576;-78
2023/11/09 02:52:51;;;;;;;6.50;2.40;;;;;;;0.87;73.22;92593.94;2071306;69;20134;-79
2023/11/09 02:55:18;;;;;;;3.97;1.90;;;;;;;0.94;73.32;92593.97;2067964;69;20155;-79
2023/11/09 02:57:44;;;;;;;5.88;2.10;;;;;;;0.99;72.62;92578.44;2068045;69;20691;-79
2023/11/09 03:00:12;;;;;;;3.47;2.00;;;;;;;1.05;72.69;92590.09;2071354;69;20197;-79
2023/11/09 03:02:39;;;;;;;5.10;2.08;;;;;;;0.79;73.72;92584.88;2071265;69;20156;-78
2023/11/09 03:05:05;;;;;;;5.47;2.40;;;;;;;0.81;73.33;92594.13;2067672;69;20179;-79
2023/11/09 03:07:32;;;;;;;3.25;1.95;;;;;;;0.81;73.49;92587.84;2071415;69;20614;-78
2023/11/09 03:09:57;;;;;;;2.78;1.83;;;;;;;0.78;73.39;92584.16;2071387;69;20159;-78
2023/11/09 03:12:23;;;;;;;5.70;1.88;;;;;;;0.71;73.21;92573.78;2068041;69;20140;-77
2023/11/09 03:14:50;;;;;;;2.85;1.90;;;;;;;0.75;74.19;92585.97;2064498;69;20195;-78
2023/11/09 03:17:20;;;;;;;5.43;2.20;;;;;;;0.85;73.66;92582.69;2067948;69;20203;-78
2023/11/09 03:19:47;;;;;;;4.13;2.08;;;;;;;0.83;73.42;92569.38;2067232;69;20206;-78
2023/11/09 03:22:13;;;;;;;3.17;1.88;;;;;;;0.68;74.31;92570.06;2067843;69;20537;-78
2023/11/09 03:24:42;;;;;;;5.85;2.25;;;;;;;0.64;75.33;92564.16;2067837;69;20156;-79
2023/11/09 03:27:09;;;;;;;3.90;2.05;;;;;;;0.62;74.81;92558.41;2067815;69;20183;-79
2023/11/09 03:29:36;;;;;;;3.65;2.10;;;;;;;0.79;74.02;92549.59;2067297;69;20161;-79
2023/11/09 03:32:06;;;;;;;2.85;1.67;;;;;;;0.85;73.47;92550.16;2068010;69;20153;-79
2023/11/09 03:34:32;;;;;;;2.58;1.42;;;;;;;0.97;73.03;92542.25;2067509;69;20257;-80
2023/11/09 03:36:58;;;;;;;2.10;1.48;;;;;;;1.04;73.04;92538.72;2067359;69;20592;-79
2023/11/09 03:39:26;;;;;;;2.30;1.40;;;;;;;1.04;72.86;92540.75;2067684;69;20172;-78
2023/11/09 03:41:52;;;;;;;4.05;1.77;;;;;;;1.22;70.85;92534.13;2067772;69;20239;-78
2023/11/09 03:44:18;;;;;;;3.20;1.77;;;;;;;1.31;70.85;92522.47;2067576;69;20140;-79
2023/11/09 03:46:51;;;;;;;3.75;2.00;;;;;;;1.34;68.72;92518.59;2067981;69;20603;-79
2023/11/09 03:49:17;;;;;;;3.22;1.88;;;;;;;1.27;69.13;92516.53;2067508;69;20591;-79
2023/11/09 03:51:43;;;;;;;3.08;1.70;;;;;;;1.45;68.64;92507.09;2067163;69;20133;-79
2023/11/09 03:54:09;;;;;;;3.63;1.92;;;;;;;1.43;68.68;92518.03;2067133;69;20635;-79
2023/11/09 03:56:37;;;;;;;4.05;1.98;;;;;;;1.45;68.75;92518.19;2067886;69;20239;-78
2023/11/09 03:59:02;;;;;;;3.03;1.50;;;;;;;1.45;69.29;92511.91;2067746;69;20168;-77
2023/11/09 04:01:29;;;;;;;2.50;1.40;;;;;;;1.48;69.73;92510.81;2067831;69;20757;-78
2023/11/09 04:03:55;;;;;;;3.45;1.63;;;;;;;1.41;70.04;92503.22;2067344;69;20607;-79
2023/11/09 04:06:21;;;;;;;2.40;1.60;;;;;;;1.34;70.65;92504.72;2067305;69;20144;-78
2023/11/09 04:08:47;;;;;;;3.15;1.60;;;;;;;1.46;70.47;92505.06;2064590;69;20599;-77
2023/11/09 04:11:13;;;;;;;4.55;1.80;;;;;;;1.51;69.98;92506.91;2067417;69;20182;-78
2023/11/09 04:13:39;;;;;;;3.60;1.67;;;;;;;1.18;70.21;92498.44;2068124;69;20515;-79
2023/11/09 04:16:08;;;;;;;7.63;1.92;;;;;;;1.25;70.92;92492.16;2071756;69;20225;-78
2023/11/09 04:18:34;;;;;;;2.70;1.75;;;;;;;1.28;71.13;92493.06;2068588;69;20526;-77
2023/11/09 04:21:00;;;;;;;2.38;1.50;;;;;;;1.28;71.22;92479.19;2071626;69;20509;-79
2023/11/09 04:23:26;;;;;;;2.28;1.30;;;;;;;1.35;70.53;92488.81;2068007;69;20635;-78
2023/11/09 04:25:52;;;;;;;1.45;1.10;;;;;;;1.36;68.89;92490.28;2071402;69;20175;-79
2023/11/09 04:28:18;;;;;;;2.78;1.27;;;;;;;1.67;67.54;92482.66;2068435;69;20140;-77
2023/11/09 04:30:44;;;;;;;1.70;1.17;;;;;;;1.65;67.65;92471.38;2071925;69;20163;-78
2023/11/09 04:33:11;;;;;;;4.93;2.30;;;;;;;1.56;68.35;92469.16;2071783;69;20214;-77
2023/11/09 04:35:36;;;;;;;3.88;2.08;;;;;;;1.49;69.34;92479.72;2071723;69;20558;-77
2023/11/09 04:38:02;;;;;;;4.03;2.00;;;;;;;1.50;68.78;92472.16;2071773;69;20598;-77
2023/11/09 04:40:30;;;;;;;4.75;2.75;;;;;;;1.48;69.21;92466.44;2071527;69;20143;-78
2023/11/09 04:42:59;;;;;;;6.07;2.67;;;;;;;1.53;69.19;92466.22;2068136;69;20595;-77
2023/11/09 04:45:25;;;;;;;3.88;2.40;;;;;;;1.37;70.71;92461.97;2071784;69;20674;-78
2023/11/09 04:47:55;;;;;;;3.63;1.90;;;;;;;1.48;70.22;92458.09;2071782;69;20286;-78
2023/11/09 04:50:28;;;;;;;2.55;1.30;;;;;;;1.51;69.31;92456.97;2071720;69;20576;-77
2023/11/09 04:53:29;;;;;;;;;;;;;;;1.57;70.20;92456.78;2071990;69;20147;-77
2023/11/09 04:56:04;;;;;;;3.55;1.30;;;;;;;1.50;70.57;92461.78;2071638;69;20657;-78
2023/11/09 04:58:51;;;;;;;5.47;2.20;;;;;;;1.34;70.39;92463.13;2068444;69;20235;-78
2023/11/09 05:06:51;;;;;;;3.15;1.88;;;;;;;1.40;69.66;92471.25;2071824;69;20227;-77
2023/11/09 05:09:23;;;;;;;3.13;1.92;;;;;;;1.37;69.67;92469.56;2071597;69;20232;-78
2023/11/09 05:11:50;;;;;;;4.70;1.80;;;;;;;1.35;69.36;92455.53;2071488;69;20650;-77
2023/11/09 05:14:17;;;;;;;4.35;1.52;;;;;;;1.35;69.62;92452.75;2071575;69;20137;-77
2023/11/09 05:16:43;;;;;;;2.88;1.52;;;;;;;1.23;70.06;92460.72;2071633;69;20144;-77
2023/11/09 05:19:10;;;;;;;4.43;1.20;;;;;;;1.23;70.69;92455.91;2071419;69;20136;-77
2023/11/09 05:21:37;;;;;;;3.03;1.08;;;;;;;1.18;71.52;92451.28;2071742;69;20227;-78
2023/11/09 05:24:03;;;;;;;2.95;1.52;;;;;;;1.10;70.26;92445.03;2071541;69;20174;-78
2023/11/09 05:26:32;;;;;;;3.05;1.70;;;;;;;1.28;69.33;92448.69;2071555;69;20176;-78
2023/11/09 05:28:58;;;;;;;4.00;1.50;;;;;;;1.35;69.47;92434.09;2071686;69;20164;-77
2023/11/09 05:31:24;;;;;;;2.05;1.40;;;;;;;1.47;68.73;92426.84;2071734;69;20180;-78
2023/11/09 05:33:54;;;;;;;13.52;7.53;;;;;;;1.22;70.29;92428.75;2071792;69;20128;-79
2023/11/09 05:36:23;;;;;;;16.80;8.38;;;;;;;1.29;69.91;92436.31;2071730;69;20587;-78
2023/11/09 05:38:48;;;;;;;11.80;6.82;;;;;;;1.28;69.68;92440.38;2071702;69;20136;-78
2023/11/09 05:41:17;;;;;;;10.52;5.70;;;;;;;1.18;70.70;92431.16;2071620;69;20252;-79
2023/11/09 05:43:44;;;;;;;9.20;4.47;;;;;;;1.11;70.93;92429.13;2071625;69;20144;-79
2023/11/09 05:46:10;;;;;;;7.63;4.15;;;;;;;0.70;72.47;92433.75;2071681;69;20257;-79
2023/11/09 05:48:36;;;;;;;8.95;4.13;;;;;;;0.99;71.53;92412.13;2071681;69;20179;-79
2023/11/09 05:51:02;;;;;;;8.05;4.53;;;;;;;0.93;71.46;92417.13;2071782;69;20536;-79
2023/11/09 05:53:27;;;;;;;7.43;4.00;;;;;;;1.15;70.76;92421.91;2071788;69;20516;-78
2023/11/09 05:55:53;;;;;;;13.18;7.90;;;;;;;0.83;71.45;92396.81;2071660;69;20587;-79
2023/11/09 05:58:19;;;;;;;9.82;6.22;;;;;;;1.15;70.77;92399.00;2071954;69;20156;-78
2023/11/09 06:00:45;;;;;;;12.32;6.82;;;;;;;1.02;71.40;92395.13;2071790;69;20140;-79
2023/11/09 06:03:11;;;;;;;8.48;5.10;;;;;;;0.99;71.54;92382.38;2071715;69;20149;-79
2023/11/09 06:05:39;;;;;;;4.13;2.53;;;;;;;1.17;71.24;92390.84;2071763;69;20152;-79
2023/11/09 06:08:08;;;;;;;3.95;2.25;;;;;;;1.27;70.57;92378.63;2071547;69;20635;-79
2023/11/09 06:10:34;;;;;;;3.25;1.80;;;;;;;1.27;70.09;92383.44;2071653;69;20152;-79
2023/11/09 06:13:00;;;;;;;9.48;3.30;;;;;;;1.36;69.92;92384.88;2071724;69;20140;-80
2023/11/09 06:15:26;;;;;;;7.57;3.60;;;;;;;1.25;70.53;92377.72;2071470;69;20522;-79
2023/11/09 06:17:52;;;;;;;4.25;1.98;;;;;;;1.37;70.49;92384.31;2071613;69;20249;-79
2023/11/09 06:20:20;;;;;;;3.55;1.45;;;;;;;1.30;70.40;92382.31;2071800;69;20148;-79
2023/11/09 06:22:46;;;;;;;6.03;2.50;;;;;;;1.31;69.76;92394.16;2068344;69;20224;-79
2023/11/09 06:25:12;;;;;;;12.13;5.70;;;;;;;0.93;72.96;92395.69;2068358;69;20239;-79
2023/11/09 06:27:40;;;;;;;8.13;4.38;;;;;;;1.01;72.37;92399.19;2071794;69;20158;-79
2023/11/09 06:30:07;;;;;;;9.68;5.05;;;;;;;1.18;71.78;92404.16;2071683;69;20152;-79
2023/11/09 06:32:33;;;;;;;9.50;4.45;;;;;;;1.34;71.08;92412.47;2071849;69;20612;-79
2023/11/09 06:35:01;;;;;;;9.20;5.00;;;;;;;0.87;72.48;92405.47;2071759;69;20152;-79
2023/11/09 06:37:27;;;;;;;10.65;4.63;;;;;;;0.88;72.47;92404.94;2071455;69;20140;-79
2023/11/09 06:39:58;;;;;;;8.45;4.75;;;;;;;1.07;71.69;92410.09;2071629;69;20151;-79
2023/11/09 06:42:24;;;;;;;9.50;4.55;;;;;;;1.15;71.41;92408.06;2071850;69;20144;-79
2023/11/09 06:44:52;;;;;;;15.18;5.43;;;;;;;1.14;71.37;92408.59;2071794;69;20191;-79
2023/11/09 06:47:19;;;;;;;9.60;5.05;;;;;;;1.17;71.85;92402.69;2071679;69;20136;-79
2023/11/09 06:49:44;;;;;;;7.85;4.43;;;;;;;0.85;73.28;92410.84;2071715;69;20654;-79
2023/11/09 06:52:10;;;;;;;12.23;5.55;;;;;;;1.12;72.73;92402.88;2071646;69;20179;-79
2023/11/09 06:54:35;;;;;;;10.60;5.35;;;;;;;1.27;72.13;92403.56;2071541;69;20206;-79
2023/11/09 06:57:04;;;;;;;7.82;4.80;;;;;;;1.01;72.31;92401.97;2071567;69;20124;-79
2023/11/09 06:59:30;;;;;;;21.02;10.85;;;;;;;0.88;74.29;92409.75;2071552;69;20133;-79
2023/11/09 07:01:56;;;;;;;23.17;9.93;;;;;;;1.26;72.78;92402.09;2071853;69;20234;-79
2023/11/09 07:04:23;;;;;;;15.48;8.40;;;;;;;1.39;72.32;92390.06;2068449;69;20256;-79
2023/11/09 07:06:49;;;;;;;15.13;6.85;;;;;;;1.44;72.20;92388.38;2071800;69;20587;-79
2023/11/09 07:09:16;;;;;;;8.20;5.25;;;;;;;1.47;71.84;92385.25;2071539;69;20133;-79
2023/11/09 07:11:43;;;;;;;12.27;5.95;;;;;;;1.01;73.53;92399.19;2071691;69;20508;-79
2023/11/09 07:14:10;;;;;;;13.98;6.57;;;;;;;0.76;73.99;92404.56;2071528;69;20274;-79
2023/11/09 07:16:36;;;;;;;18.10;9.27;;;;;;;1.08;74.08;92406.03;2071689;69;20222;-78
2023/11/09 07:19:01;;;;;;;19.25;10.73;;;;;;;1.39;73.20;92405.97;2071541;69;20630;-78
2023/11/09 07:21:27;;;;;;;25.08;11.20;;;;;;;1.53;72.33;92399.63;2071524;69;20140;-81
2023/11/09 07:23:59;;;;;;;16.73;8.15;;;;;;;1.60;72.46;92406.44;2071544;69;20225;-79
2023/11/09 07:26:29;;;;;;;36.17;17.35;;;;;;;1.59;72.64;92390.38;2071403;69;20695;-78
2023/11/09 07:28:55;;;;;;;39.42;18.33;;;;;;;1.73;72.54;92392.34;2068336;69;20197;-80
2023/11/09 07:31:21;;;;;;;9.00;4.80;;;;;;;1.82;71.12;92379.91;2071473;69;20151;-78
2023/11/09 07:33:49;;;;;;;7.35;4.00;;;;;;;2.12;70.52;92386.63;2071469;69;20276;-78
2023/11/09 07:36:17;;;;;;;12.75;7.00;;;;;;;2.38;69.97;92379.78;2071410;69;20167;-78
2023/11/09 07:38:45;;;;;;;19.50;10.52;;;;;;;2.23;69.85;92386.91;2071538;69;20211;-78
2023/11/09 07:41:11;;;;;;;21.75;12.00;;;;;;;2.30;70.53;92399.31;2071486;69;20223;-78
2023/11/09 07:43:36;;;;;;;20.38;11.90;;;;;;;2.53;70.71;92399.88;2071747;69;20175;-78
2023/11/09 07:46:02;;;;;;;17.23;10.05;;;;;;;2.64;70.29;92393.13;2071690;69;20220;-78
2023/11/09 07:48:28;;;;;;;17.60;9.25;;;;;;;2.83;69.52;92395.41;2071912;69;20148;-78
2023/11/09 07:50:54;;;;;;;15.38;8.52;;;;;;;3.03;69.56;92393.59;2072086;69;20140;-77
2023/11/09 07:53:22;;;;;;;11.38;6.60;;;;;;;3.08;69.38;92391.88;2072096;69;20171;-78
2023/11/09 07:55:50;;;;;;;11.00;6.53;;;;;;;3.08;70.03;92387.06;2071824;69;20181;-78
2023/11/09 07:58:17;;;;;;;13.02;7.63;;;;;;;3.08;69.41;92378.72;2072101;69;20140;-78
2023/11/09 08:00:44;;;;;;;15.50;7.70;;;;;;;3.12;69.01;92392.94;2072044;69;20211;-78
2023/11/09 08:03:11;;;;;;;10.75;6.50;;;;;;;2.91;69.40;92393.31;2072196;69;20155;-79
2023/11/09 08:05:41;;;;;;;13.40;7.22;;;;;;;3.20;68.99;92396.38;2072043;69;20173;-79
2023/11/09 08:08:10;;;;;;;16.98;7.72;;;;;;;3.35;68.96;92381.59;2068786;69;20132;-79
2023/11/09 08:10:38;;;;;;;38.17;17.75;;;;;;;3.47;68.95;92379.78;2071983;69;20152;-79
2023/11/09 08:13:05;;;;;;;44.75;21.20;;;;;;;3.31;70.11;92375.72;2071948;69;20239;-79
2023/11/09 08:15:31;;;;;;;37.33;16.95;;;;;;;3.65;69.15;92368.66;2071843;69;20620;-79
2023/11/09 08:17:57;;;;;;;40.95;18.70;;;;;;;4.07;69.54;92372.03;2071855;69;20145;-79
2023/11/09 08:20:23;;;;;;;12.10;6.50;;;;;;;4.50;67.02;92355.13;2071889;69;20159;-80
2023/11/09 08:22:50;;;;;;;8.95;5.22;;;;;;;4.73;66.58;92360.34;2072250;69;20152;-79
2023/11/09 08:25:20;;;;;;;7.65;3.50;;;;;;;4.95;62.53;92367.63;2071807;69;20151;-79
2023/11/09 08:27:46;;;;;;;9.95;5.70;;;;;;;5.03;62.61;92371.00;2072080;69;20676;-79
2023/11/09 08:30:15;;;;;;;6.47;3.53;;;;;;;5.00;61.59;92366.63;2072183;69;20140;-78
2023/11/09 08:32:41;;;;;;;8.57;3.30;;;;;;;5.25;61.03;92360.78;2071936;69;20179;-80
2023/11/09 08:35:10;;;;;;;7.72;3.67;;;;;;;5.43;59.36;92369.03;2072012;69;20149;-79
2023/11/09 08:37:41;;;;;;;7.65;4.43;;;;;;;5.15;62.83;92364.88;2072086;69;20149;-81
2023/11/09 08:40:17;;;;;;;7.75;4.32;;;;;;;5.56;64.44;92360.25;2071684;69;20152;-80
2023/11/09 08:42:48;;;;;;;11.38;4.78;;;;;;;5.85;63.73;92358.19;2071849;69;20237;-81
2023/11/09 08:45:22;;;;;;;10.68;5.85;;;;;;;6.04;62.84;92357.47;2072022;69;20292;-81
2023/11/09 08:47:57;;;;;;;8.35;4.50;;;;;;;6.46;60.79;92356.22;2072069;69;20132;-79
2023/11/09 08:50:24;;;;;;;7.10;4.07;;;;;;;6.61;57.98;92339.09;2071787;69;20500;-80
2023/11/09 08:52:53;;;;;;;9.75;4.90;;;;;;;6.63;58.58;92349.69;2071798;69;20626;-80
2023/11/09 08:55:20;;;;;;;12.15;5.30;;;;;;;6.67;58.46;92335.97;2071769;69;20199;-81
2023/11/09 08:57:47;;;;;;;9.07;5.20;;;;;;;6.63;59.14;92341.28;2071992;69;20625;-79
2023/11/09 09:00:13;;;;;;;11.07;5.13;;;;;;;7.06;59.53;92335.81;2068619;69;20166;-80
2023/11/09 09:02:51;;;;;;;10.15;4.38;;;;;;;7.44;58.99;92326.44;2071930;69;20140;-80
2023/11/09 09:05:21;;;;;;;6.75;3.00;;;;;;;7.68;54.43;92326.56;2071966;69;20136;-81
2023/11/09 09:07:53;;;;;;;4.68;2.88;;;;;;;8.33;53.59;92337.06;2071910;69;20240;-79
2023/11/09 09:10:20;;;;;;;8.23;3.30;;;;;;;8.24;53.54;92309.84;2071854;69;20147;-80
2023/11/09 09:12:48;;;;;;;3.83;2.50;;;;;;;8.30;50.91;92335.47;2071963;69;20152;-80
2023/11/09 09:15:19;;;;;;;4.75;2.05;;;;;;;8.58;50.38;92333.75;2071843;69;20155;-81
2023/11/09 09:17:46;;;;;;;5.45;2.60;;;;;;;8.60;48.41;92331.03;2068895;69;20148;-79
2023/11/09 09:20:15;;;;;;;3.88;2.15;;;;;;;8.72;48.65;92324.72;2071832;69;20371;-81
2023/11/09 09:22:42;;;;;;;3.88;1.88;;;;;;;8.93;49.69;92324.59;2071796;69;20148;-83
2023/11/09 09:25:10;;;;;;;8.05;4.38;;;;;;;8.42;53.68;92331.97;2071707;69;20152;-80
2023/11/09 09:27:42;;;;;;;8.10;3.58;;;;;;;8.89;53.70;92330.00;2072065;69;20156;-81
2023/11/09 09:30:12;;;;;;;7.97;3.55;;;;;;;9.31;52.64;92329.00;2071825;69;20156;-82
2023/11/09 09:32:38;;;;;;;6.05;3.60;;;;;;;10.04;50.87;92345.84;2071845;69;20216;-82
2023/11/09 09:35:07;;;;;;;8.60;3.35;;;;;;;10.94;51.74;92345.88;2071767;69;20140;-81
2023/11/09 09:37:37;;;;;;;10.38;4.40;;;;;;;10.81;50.27;92330.44;2071749;69;20148;-81
2023/11/09 09:40:17;;;;;;;5.80;3.60;;;;;;;10.40;46.22;92331.03;2071642;69;20180;-81
2023/11/09 09:42:49;;;;;;;6.35;4.20;;;;;;;10.72;48.26;92342.63;2071774;69;20167;-80
2023/11/09 09:45:19;;;;;;;9.65;3.20;;;;;;;10.02;47.43;92334.47;2071941;69;20200;-79
2023/11/09 09:47:52;;;;;;;6.90;3.15;;;;;;;11.45;48.31;92346.50;2071725;69;20145;-79
2023/11/09 09:50:25;;;;;;;6.65;3.60;;;;;;;12.00;48.49;92333.72;2071706;69;20140;-79
2023/11/09 09:52:59;;;;;;;6.15;3.30;;;;;;;12.46;45.15;92341.66;2071702;69;20198;-79
2023/11/09 09:55:26;;;;;;;11.43;3.72;;;;;;;12.58;45.26;92326.63;2071547;69;20168;-79
2023/11/09 09:57:55;;;;;;;5.70;3.00;;;;;;;12.73;44.32;92329.47;2071767;69;20160;-79
2023/11/09 10:00:30;;;;;;;9.18;4.13;;;;;;;11.59;44.76;92326.00;2071800;69;20137;-77
2023/11/09 10:03:00;;;;;;;8.10;3.25;;;;;;;11.68;44.38;92325.06;2071850;69;20140;-78
2023/11/09 10:05:28;;;;;;;5.22;3.17;;;;;;;12.45;43.83;92320.41;2071908;69;20603;-78
2023/11/09 10:07:57;;;;;;;4.97;2.92;;;;;;;12.12;42.49;92311.75;2068419;69;20137;-79
2023/11/09 10:10:25;;;;;;;7.63;3.53;;;;;;;11.92;43.69;92312.22;2071305;69;20152;-78
2023/11/09 10:12:51;;;;;;;12.77;7.05;;;;;;;12.29;42.63;92299.16;2071794;69;20703;-80
2023/11/09 10:15:16;;;;;;;11.82;6.05;;;;;;;13.12;42.55;92302.28;2068221;69;20274;-80
2023/11/09 10:17:43;;;;;;;12.43;6.65;;;;;;;13.24;41.17;92297.22;2068450;69;20239;-82
2023/11/09 10:20:15;;;;;;;6.57;2.63;;;;;;;13.01;41.36;92303.19;2071814;69;20149;-81
2023/11/09 10:22:43;;;;;;;3.75;2.13;;;;;;;13.19;41.54;92287.03;2071741;69;20594;-81
2023/11/09 10:25:13;;;;;;;5.30;2.22;;;;;;;14.35;42.33;92277.84;2071507;69;20145;-81
2023/11/09 10:27:39;;;;;;;4.25;2.00;;;;;;;15.49;39.42;92292.81;2071371;69;20128;-81
2023/11/09 10:30:06;;;;;;;2.90;1.80;;;;;;;16.00;36.97;92283.25;2071723;69;20144;-81
2023/11/09 10:32:35;;;;;;;6.82;2.75;;;;;;;16.52;37.08;92289.22;2071598;69;20148;-79
2023/11/09 10:35:03;;;;;;;7.80;2.83;;;;;;;16.70;37.02;92280.56;2071887;69;20223;-78
2023/11/09 10:37:29;;;;;;;3.72;2.47;;;;;;;15.44;36.97;92282.66;2071697;69;20294;-78
2023/11/09 10:39:57;;;;;;;6.85;5.13;;;;;;;14.91;38.17;92278.63;2071483;69;20156;-80
2023/11/09 10:42:25;;;;;;;6.82;4.07;;;;;;;16.77;36.20;92287.91;2071562;69;20172;-80
2023/11/09 10:44:55;;;;;;;4.93;2.83;;;;;;;17.73;34.40;92280.09;2071660;69;20511;-80
2023/11/09 10:47:24;;;;;;;3.05;2.00;;;;;;;16.60;34.97;92280.25;2071634;69;20187;-79
2023/11/09 10:49:54;;;;;;;3.13;1.77;;;;;;;16.28;35.22;92280.63;2071617;69;20140;-80
2023/11/09 10:52:21;;;;;;;2.58;1.60;;;;;;;17.26;34.71;92270.19;2071649;69;20136;-79
2023/11/09 10:54:50;;;;;;;6.03;1.92;;;;;;;17.91;33.80;92271.31;2071524;69;20144;-80
2023/11/09 10:57:18;;;;;;;4.45;2.80;;;;;;;19.74;33.94;92268.50;2071679;69;20178;-80
2023/11/09 10:59:50;;;;;;;4.53;2.30;;;;;;;20.76;33.66;92258.94;2071618;69;20171;-78
2023/11/09 11:02:27;;;;;;;5.07;3.00;;;;;;;20.15;31.78;92252.13;2071655;69;20136;-80
2023/11/09 11:04:59;;;;;;;5.35;2.90;;;;;;;17.14;33.40;92240.69;2071631;69;20158;-80
2023/11/09 11:07:29;;;;;;;5.25;3.15;;;;;;;17.07;35.04;92244.75;2071688;69;20564;-80
2023/11/09 11:09:56;;;;;;;4.72;3.30;;;;;;;14.91;37.19;92235.38;2071665;69;20171;-80
2023/11/09 11:12:26;;;;;;;7.78;5.32;;;;;;;14.23;38.98;92232.75;2071604;69;20227;-79
2023/11/09 11:14:53;;;;;;;4.05;2.83;;;;;;;14.99;39.26;92225.06;2071503;69;20240;-82
2023/11/09 11:17:41;;;;;;;5.93;3.20;;;;;;;15.03;40.04;92233.00;2068262;69;20144;-81
2023/11/09 11:20:27;;;;;;;3.65;2.60;;;;;;;14.34;38.11;92221.84;2071545;69;20135;-79
2023/11/09 11:23:12;;;;;;;4.35;2.50;;;;;;;14.31;37.25;92226.69;2071540;69;20249;-80
2023/11/09 11:25:46;;;;;;;4.00;3.10;;;;;;;13.15;39.09;92219.78;2071648;69;20198;-80
2023/11/09 11:28:17;;;;;;;7.07;4.07;;;;;;;12.32;43.82;92224.50;2068549;69;20290;-79
2023/11/09 11:30:44;;;;;;;6.43;4.00;;;;;;;12.93;42.75;92208.22;2071729;69;20160;-80
2023/11/09 11:33:15;;;;;;;7.70;4.38;;;;;;;12.95;44.47;92205.47;2068257;69;20206;-80
2023/11/09 11:35:48;;;;;;;8.45;4.13;;;;;;;13.43;43.41;92209.00;2071594;69;20148;-80
2023/11/09 11:38:29;;;;;;;7.35;3.58;;;;;;;12.96;42.08;92212.59;2071492;69;20152;-80
2023/11/09 11:41:08;;;;;;;6.75;3.80;;;;;;;12.67;43.76;92218.34;2068058;69;20133;-78
2023/11/09 11:43:50;;;;;;;8.88;4.45;;;;;;;12.50;44.68;92221.78;2071412;69;20132;-80
2023/11/09 11:46:18;;;;;;;7.93;4.13;;;;;;;13.36;43.75;92212.19;2071449;69;20593;-78
2023/11/09 11:48:51;;;;;;;6.20;3.72;;;;;;;13.37;43.74;92208.72;2071591;69;20175;-79